Atlanta, Georgia
Traffic Map
Current Weather Conditions
Atlanta, Georgia
Overcast Light Rain
Overcast

Feels Like: 5°
Wind Chill: Ceiling: 6500
Heat Index: Visibility: 10mi
Dew Point: Wind: 6mph
Humidity: 65% Direction: 330° (NNW)
Pressure: 30.17in Gusts: 0mph
Raw Report DataKATL 200352Z 33005KT 10SM -RA BKN065 OVC080 07/01 A3017 RMK AO2 SLP219 P0000 T00670006
Traffic Incident Summary
Active as of:
Severity:
Category:
InformationThere was an issue retrieving the traffic information for this location. Please try a different location or try again shortly.
Advertisements
Track Severe Weather on mobile